createdAt,value
2018-08-09T00:02:26.137Z,16.13
2018-08-09T00:04:54.534Z,17.67
2018-08-09T00:07:22.719Z,14.10
2018-08-09T00:09:50.745Z,17.93
2018-08-09T00:12:18.794Z,14.73
2018-08-09T00:14:46.794Z,15.60
2018-08-09T00:17:14.950Z,19.13
2018-08-09T00:19:42.994Z,16.00
2018-08-09T00:22:10.997Z,13.80
2018-08-09T00:24:39.042Z,16.00
2018-08-09T00:27:07.073Z,20.00
2018-08-09T00:29:35.082Z,18.97
2018-08-09T00:32:03.154Z,16.10
2018-08-09T00:34:31.239Z,14.93
2018-08-09T00:36:59.295Z,13.20
2018-08-09T00:39:27.338Z,16.67
2018-08-09T00:41:55.345Z,15.53
2018-08-09T00:44:23.568Z,19.30
2018-08-09T00:46:51.653Z,15.40
2018-08-09T00:49:19.831Z,13.87
2018-08-09T00:51:47.841Z,17.23
2018-08-09T00:54:15.913Z,18.90
2018-08-09T00:56:43.997Z,20.13
2018-08-09T00:59:12.073Z,19.73
2018-08-09T01:01:40.129Z,22.30
2018-08-09T01:04:08.121Z,19.20
2018-08-09T01:06:36.321Z,16.73
2018-08-09T01:09:07.677Z,18.67
2018-08-09T01:11:36.321Z,17.50
2018-08-09T01:14:04.782Z,20.20
2018-08-09T01:16:32.860Z,22.00
2018-08-09T01:19:00.944Z,16.50
2018-08-09T01:21:29.342Z,19.93
2018-08-09T01:23:57.355Z,16.10
2018-08-09T01:26:25.362Z,22.37
2018-08-09T01:28:53.396Z,15.93
2018-08-09T01:31:29.085Z,15.43
2018-08-09T01:33:57.102Z,14.77
2018-08-09T01:36:25.321Z,14.40
2018-08-09T01:38:53.536Z,17.20
2018-08-09T01:41:21.593Z,17.83
2018-08-09T01:43:55.830Z,18.43
2018-08-09T01:46:24.309Z,18.20
2018-08-09T01:48:52.393Z,16.60
2018-08-09T01:51:20.490Z,16.90
2018-08-09T01:53:48.869Z,16.90
2018-08-09T01:56:16.957Z,14.60
2018-08-09T01:58:45.132Z,18.27
2018-08-09T02:01:13.204Z,16.13
2018-08-09T02:03:41.822Z,14.27
2018-08-09T02:06:09.825Z,17.17
2018-08-09T02:08:37.923Z,15.07
2018-08-09T02:11:06.690Z,15.77
2018-08-09T02:13:34.691Z,17.30
2018-08-09T02:16:02.694Z,15.83
2018-08-09T02:18:30.743Z,16.50
2018-08-09T02:20:58.746Z,19.27
2018-08-09T02:23:26.777Z,17.03
2018-08-09T02:25:54.801Z,16.20
2018-08-09T02:28:22.869Z,19.13
2018-08-09T02:30:50.914Z,15.83
2018-08-09T02:33:18.909Z,17.00
2018-08-09T02:35:47.175Z,16.43
2018-08-09T02:38:15.193Z,19.13
2018-08-09T02:40:43.201Z,14.50
2018-08-09T02:43:11.245Z,14.90
2018-08-09T02:45:39.358Z,15.37
2018-08-09T02:48:07.358Z,15.50
2018-08-09T02:50:35.422Z,15.90
2018-08-09T02:53:03.506Z,19.80
2018-08-09T02:55:31.556Z,19.63
2018-08-09T02:57:59.558Z,17.27
2018-08-09T03:00:27.669Z,15.10
2018-08-09T03:02:55.741Z,24.40
2018-08-09T03:05:24.051Z,16.23
2018-08-09T03:07:52.170Z,19.83
2018-08-09T03:10:20.255Z,18.33
2018-08-09T03:12:48.293Z,16.60
2018-08-09T03:15:16.325Z,18.57
2018-08-09T03:17:44.452Z,21.63
2018-08-09T03:20:12.533Z,16.83
2018-08-09T03:22:40.578Z,16.63
2018-08-09T03:25:08.610Z,17.00
2018-08-09T03:27:36.689Z,21.17
2018-08-09T03:30:05.906Z,18.33
2018-08-09T03:32:33.942Z,16.60
2018-08-09T03:35:01.977Z,19.27
2018-08-09T03:37:29.989Z,16.30
2018-08-09T03:39:58.134Z,16.90
2018-08-09T03:42:26.142Z,18.17
2018-08-09T03:44:54.173Z,16.87
2018-08-09T03:47:22.288Z,18.33
2018-08-09T03:49:50.374Z,20.40
2018-08-09T03:52:18.422Z,21.13
2018-08-09T03:54:46.420Z,18.20
2018-08-09T03:57:14.502Z,17.33
2018-08-09T03:59:42.624Z,16.43
2018-08-09T04:02:10.690Z,18.73
2018-08-09T04:04:39.081Z,21.13
2018-08-09T04:07:07.162Z,18.70
2018-08-09T04:09:35.152Z,25.83
2018-08-09T04:12:03.270Z,18.27
2018-08-09T04:14:31.210Z,19.10
2018-08-09T04:16:59.248Z,13.90
2018-08-09T04:19:27.250Z,17.20
2018-08-09T04:21:55.257Z,14.57
2018-08-09T04:24:23.649Z,19.03
2018-08-09T04:26:51.746Z,16.30
2018-08-09T04:29:19.822Z,15.87
2018-08-09T04:31:48.218Z,15.73
2018-08-09T04:34:16.262Z,13.93
2018-08-09T04:36:44.378Z,13.53
2018-08-09T04:39:12.422Z,16.97
2018-08-09T04:41:40.465Z,14.70
2018-08-09T04:44:08.521Z,13.20
2018-08-09T04:46:36.706Z,12.53
2018-08-09T04:49:04.798Z,16.67
2018-08-09T04:51:33.774Z,13.30
2018-08-09T04:54:01.813Z,11.63
2018-08-09T04:56:29.905Z,14.07
2018-08-09T04:58:57.959Z,12.30
2018-08-09T05:01:26.007Z,12.13
2018-08-09T05:03:54.525Z,13.40
2018-08-09T05:06:22.618Z,14.83
2018-08-09T05:08:50.654Z,11.23
2018-08-09T05:11:18.653Z,14.03
2018-08-09T05:13:46.690Z,12.97
2018-08-09T05:16:14.721Z,12.23
2018-08-09T05:18:42.733Z,13.50
2018-08-09T05:21:10.820Z,10.53
2018-08-09T05:23:38.898Z,15.10
2018-08-09T05:26:07.324Z,11.57
2018-08-09T05:28:35.377Z,12.83
2018-08-09T05:31:03.457Z,14.30
2018-08-09T05:33:31.482Z,13.30
2018-08-09T05:35:59.562Z,14.20
2018-08-09T05:38:27.612Z,13.93
2018-08-09T05:40:55.694Z,13.87
2018-08-09T05:43:23.690Z,13.70
2018-08-09T05:45:51.762Z,12.93
2018-08-09T05:48:19.846Z,20.17
2018-08-09T05:50:47.927Z,12.53
2018-08-09T05:53:16.203Z,12.13
2018-08-09T05:55:44.158Z,17.27
2018-08-09T05:58:12.165Z,13.30
2018-08-09T06:00:40.204Z,11.37
2018-08-09T06:03:08.401Z,12.90
2018-08-09T06:05:36.531Z,16.00
2018-08-09T06:08:04.622Z,17.40
2018-08-09T06:10:32.701Z,11.23
2018-08-09T06:13:00.712Z,17.40
2018-08-09T06:15:28.757Z,11.63
2018-08-09T06:17:56.797Z,13.70
2018-08-09T06:20:25.148Z,12.80
2018-08-09T06:22:53.151Z,12.47
2018-08-09T06:25:21.210Z,11.07
2018-08-09T06:27:49.275Z,14.73
2018-08-09T06:30:17.270Z,12.60
2018-08-09T06:32:45.662Z,13.73
2018-08-09T06:35:13.662Z,17.50
2018-08-09T06:37:41.706Z,20.80
2018-08-09T06:40:12.511Z,11.77
2018-08-09T06:42:41.281Z,13.80
2018-08-09T06:45:09.358Z,14.50
2018-08-09T06:47:37.449Z,15.17
2018-08-09T06:50:06.090Z,13.60
2018-08-09T06:52:34.132Z,13.80
2018-08-09T06:55:02.218Z,17.07
2018-08-09T06:57:30.217Z,16.07
2018-08-09T06:59:58.289Z,14.47
2018-08-09T07:02:26.527Z,16.20
2018-08-09T07:04:54.857Z,13.20
2018-08-09T07:07:22.943Z,12.63
2018-08-09T07:09:51.016Z,14.63
2018-08-09T07:12:19.118Z,20.40
2018-08-09T07:14:47.113Z,17.13
2018-08-09T07:17:15.150Z,12.50
2018-08-09T07:19:43.265Z,13.40
2018-08-09T07:22:11.355Z,13.40
2018-08-09T07:24:39.397Z,17.53
2018-08-09T07:27:07.392Z,14.33
2018-08-09T07:29:35.390Z,13.10
2018-08-09T07:32:03.487Z,15.07
2018-08-09T07:34:31.574Z,15.03
2018-08-09T07:36:59.570Z,17.00
2018-08-09T07:39:27.731Z,13.80
2018-08-09T07:41:55.679Z,14.53
2018-08-09T07:44:23.689Z,18.90
2018-08-09T07:46:51.901Z,15.23
2018-08-09T07:49:20.074Z,15.47
2018-08-09T07:51:48.764Z,13.93
2018-08-09T07:54:16.840Z,13.57
2018-08-09T07:56:45.146Z,13.03
2018-08-09T07:59:13.234Z,14.63
2018-08-09T08:01:41.313Z,16.07
2018-08-09T08:04:09.413Z,14.73
2018-08-09T08:06:37.409Z,14.87
2018-08-09T08:09:08.357Z,16.73
2018-08-09T08:11:36.424Z,12.80
2018-08-09T08:14:04.942Z,13.60
2018-08-09T08:16:32.995Z,12.50
2018-08-09T08:19:01.285Z,13.90
2018-08-09T08:21:29.374Z,15.83
2018-08-09T08:23:57.445Z,15.00
2018-08-09T08:26:25.481Z,15.60
2018-08-09T08:28:53.486Z,13.93
2018-08-09T08:31:21.525Z,13.03
2018-08-09T08:33:49.893Z,14.13
2018-08-09T08:36:17.977Z,12.27
2018-08-09T08:38:46.266Z,15.20
2018-08-09T08:41:14.553Z,12.20
2018-08-09T08:43:42.626Z,13.60
2018-08-09T08:46:10.827Z,14.50
2018-08-09T08:48:38.878Z,16.13
2018-08-09T08:51:06.885Z,14.00
2018-08-09T08:53:34.980Z,14.33
2018-08-09T08:56:03.159Z,13.10
2018-08-09T08:58:31.204Z,14.20
2018-08-09T09:00:59.450Z,12.80
2018-08-09T09:03:27.524Z,15.37
2018-08-09T09:05:55.534Z,15.30
2018-08-09T09:08:23.592Z,15.20
2018-08-09T09:10:54.683Z,12.47
2018-08-09T09:13:23.365Z,12.03
2018-08-09T09:15:51.381Z,11.10
2018-08-09T09:18:19.380Z,12.23
2018-08-09T09:20:47.489Z,12.93
2018-08-09T09:23:15.567Z,11.80
2018-08-09T09:25:43.810Z,11.90
2018-08-09T09:28:11.842Z,11.67
2018-08-09T09:30:39.930Z,11.40
2018-08-09T09:33:07.974Z,10.73
2018-08-09T09:35:42.608Z,13.93
2018-08-09T09:38:10.616Z,15.00
2018-08-09T09:40:38.709Z,14.83
2018-08-09T09:43:07.106Z,13.00
2018-08-09T09:45:35.281Z,12.63
2018-08-09T09:48:03.369Z,10.07
2018-08-09T09:50:31.399Z,9.17
2018-08-09T09:52:59.640Z,8.80
2018-08-09T09:55:27.735Z,8.97
2018-08-09T09:57:55.738Z,10.00
2018-08-09T10:00:27.913Z,10.77
2018-08-09T10:02:55.940Z,10.17
2018-08-09T10:05:23.946Z,9.03
2018-08-09T10:07:52.022Z,8.30
2018-08-09T10:10:20.138Z,13.40
2018-08-09T10:12:48.308Z,9.67
2018-08-09T10:15:16.402Z,9.87
2018-08-09T10:17:44.417Z,8.93
2018-08-09T10:20:12.874Z,9.43
2018-08-09T10:22:40.873Z,10.77
2018-08-09T10:25:08.981Z,16.77
2018-08-09T10:27:37.041Z,10.47
2018-08-09T10:30:06.230Z,11.20
2018-08-09T10:32:34.305Z,10.30
2018-08-09T10:35:02.705Z,9.37
2018-08-09T10:37:30.935Z,15.00
2018-08-09T10:39:58.962Z,11.03
2018-08-09T10:42:26.998Z,10.83
2018-08-09T10:44:55.041Z,9.67
2018-08-09T10:47:23.073Z,9.63
2018-08-09T10:49:51.137Z,9.00
2018-08-09T10:52:19.267Z,8.50
2018-08-09T10:54:47.685Z,8.83
2018-08-09T10:57:15.921Z,9.10
2018-08-09T10:59:43.917Z,8.73
2018-08-09T11:02:12.046Z,8.40
2018-08-09T11:04:40.134Z,8.27
2018-08-09T11:07:08.521Z,9.17
2018-08-09T11:09:36.601Z,9.03
2018-08-09T11:12:04.607Z,9.23
2018-08-09T11:14:32.635Z,8.43
2018-08-09T11:17:00.653Z,8.40
2018-08-09T11:19:28.697Z,8.73
2018-08-09T11:21:56.814Z,9.60
2018-08-09T11:24:24.814Z,7.90
2018-08-09T11:26:52.861Z,14.83
2018-08-09T11:29:20.861Z,12.10
2018-08-09T11:31:48.964Z,7.53
2018-08-09T11:34:17.057Z,9.77
2018-08-09T11:36:45.115Z,11.47
2018-08-09T11:39:13.303Z,9.80
2018-08-09T11:41:41.496Z,10.97
2018-08-09T11:44:11.137Z,8.73
2018-08-09T11:46:39.393Z,8.50
2018-08-09T11:49:07.616Z,10.63
2018-08-09T11:51:35.674Z,8.20
2018-08-09T11:54:03.692Z,9.10
2018-08-09T11:56:31.763Z,8.03
2018-08-09T11:58:59.790Z,7.40
2018-08-09T12:01:27.837Z,15.17
2018-08-09T12:03:55.870Z,10.13
2018-08-09T12:06:23.870Z,7.63
2018-08-09T12:08:51.898Z,10.50
2018-08-09T12:11:19.938Z,8.33
2018-08-09T12:13:47.945Z,12.90
2018-08-09T12:16:15.974Z,7.20
2018-08-09T12:18:44.090Z,13.17
2018-08-09T12:21:12.450Z,9.60
2018-08-09T12:23:40.441Z,9.17
2018-08-09T12:26:08.468Z,9.70
2018-08-09T12:28:36.478Z,8.23
2018-08-09T12:31:04.617Z,7.40
2018-08-09T12:33:32.691Z,8.20
2018-08-09T12:36:00.969Z,7.20
2018-08-09T12:38:29.303Z,10.00
2018-08-09T12:40:57.350Z,8.13
2018-08-09T12:43:26.248Z,8.93
2018-08-09T12:45:54.313Z,10.17
2018-08-09T12:48:22.321Z,17.30
2018-08-09T12:50:50.771Z,7.03
2018-08-09T12:53:18.725Z,9.13
2018-08-09T12:55:46.717Z,7.83
2018-08-09T12:58:14.850Z,8.30
2018-08-09T13:00:42.904Z,6.40
2018-08-09T13:03:11.032Z,9.40
2018-08-09T13:05:39.322Z,9.17
2018-08-09T13:08:07.712Z,6.03
2018-08-09T13:10:35.796Z,7.43
2018-08-09T13:13:03.798Z,8.63
2018-08-09T13:15:32.377Z,8.40
2018-08-09T13:18:00.361Z,8.77
2018-08-09T13:20:28.443Z,7.60
2018-08-09T13:22:56.477Z,6.27
2018-08-09T13:25:24.585Z,6.53
2018-08-09T13:27:52.693Z,6.87
2018-08-09T13:30:20.799Z,8.20
2018-08-09T13:32:48.857Z,7.10
2018-08-09T13:35:16.947Z,10.20
2018-08-09T13:37:45.339Z,5.27
2018-08-09T13:40:13.334Z,7.83
2018-08-09T13:42:41.828Z,5.00
2018-08-09T13:45:13.113Z,9.30
2018-08-09T13:47:41.250Z,9.43
2018-08-09T13:50:10.157Z,6.47
2018-08-09T13:52:38.721Z,10.53
2018-08-09T13:55:07.689Z,8.87
2018-08-09T13:57:35.849Z,5.67
2018-08-09T14:00:04.862Z,7.93
2018-08-09T14:02:32.938Z,7.97
2018-08-09T14:05:00.978Z,6.50
2018-08-09T14:07:29.207Z,7.57
2018-08-09T14:09:57.298Z,11.37
2018-08-09T14:12:25.342Z,13.23
2018-08-09T14:14:53.336Z,8.10
2018-08-09T14:17:21.441Z,8.13
2018-08-09T14:19:49.520Z,6.97
2018-08-09T14:22:17.605Z,7.93
2018-08-09T14:24:45.936Z,7.50
2018-08-09T14:27:13.957Z,7.80
2018-08-09T14:29:41.997Z,6.70
2018-08-09T14:32:10.005Z,8.90
2018-08-09T14:34:38.034Z,9.23
2018-08-09T14:37:06.891Z,6.70
2018-08-09T14:39:35.025Z,6.33
2018-08-09T14:42:03.162Z,9.87
2018-08-09T14:44:31.186Z,9.40
2018-08-09T14:46:59.473Z,10.80
2018-08-09T14:49:27.464Z,7.20
2018-08-09T14:51:55.546Z,10.30
2018-08-09T14:54:23.573Z,10.90
2018-08-09T14:56:51.710Z,7.93
2018-08-09T14:59:19.716Z,6.47
2018-08-09T15:01:47.920Z,8.30
2018-08-09T15:04:15.923Z,8.00
2018-08-09T15:06:44.210Z,9.27
2018-08-09T15:09:12.745Z,6.83
2018-08-09T15:11:40.976Z,10.50
2018-08-09T15:14:10.093Z,5.97
2018-08-09T15:16:38.072Z,7.80
2018-08-09T15:19:06.350Z,8.47
2018-08-09T15:21:34.391Z,9.37
2018-08-09T15:24:02.417Z,6.20
2018-08-09T15:26:30.461Z,9.20
2018-08-09T15:28:58.498Z,8.50
2018-08-09T15:31:26.526Z,6.53
2018-08-09T15:33:54.719Z,8.73
2018-08-09T15:36:22.714Z,6.50
2018-08-09T15:38:50.790Z,10.70
2018-08-09T15:41:19.023Z,8.03
2018-08-09T15:43:47.456Z,9.50
2018-08-09T15:46:15.549Z,7.13
2018-08-09T15:48:43.554Z,10.00
2018-08-09T15:51:11.641Z,9.07
2018-08-09T15:53:39.917Z,8.87
2018-08-09T15:56:07.962Z,6.50
2018-08-09T15:58:36.125Z,8.27
2018-08-09T16:01:04.254Z,7.37
2018-08-09T16:03:32.338Z,8.63
2018-08-09T16:06:00.409Z,7.90
2018-08-09T16:08:28.513Z,7.37
2018-08-09T16:10:56.519Z,7.47
2018-08-09T16:13:24.512Z,9.27
2018-08-09T16:15:52.548Z,6.50
2018-08-09T16:18:20.572Z,9.63
2018-08-09T16:20:48.617Z,6.47
2018-08-09T16:23:16.670Z,6.57
2018-08-09T16:25:44.711Z,7.70
2018-08-09T16:28:12.690Z,6.93
2018-08-09T16:30:40.713Z,6.87
2018-08-09T16:33:09.048Z,7.90
2018-08-09T16:35:37.530Z,6.63
2018-08-09T16:38:05.785Z,6.03
2018-08-09T16:40:33.790Z,10.37
2018-08-09T16:43:01.990Z,6.47
2018-08-09T16:45:30.078Z,5.97
2018-08-09T16:47:58.077Z,7.90
2018-08-09T16:50:26.558Z,5.80
2018-08-09T16:52:54.946Z,8.60
2018-08-09T16:55:23.837Z,7.73
2018-08-09T16:57:51.934Z,8.97
2018-08-09T17:00:21.474Z,6.70
2018-08-09T17:02:50.152Z,6.40
2018-08-09T17:05:19.674Z,7.30
2018-08-09T17:07:47.854Z,6.60
2018-08-09T17:10:17.573Z,19.27
2018-08-09T17:12:45.606Z,7.33
2018-08-09T17:15:17.483Z,7.90
2018-08-09T17:17:45.508Z,8.50
2018-08-09T17:20:17.186Z,7.20
2018-08-09T17:22:45.268Z,7.97
2018-08-09T17:25:13.965Z,7.20
2018-08-09T17:27:43.489Z,10.93
2018-08-09T17:30:12.938Z,9.07
2018-08-09T17:32:41.287Z,10.20
2018-08-09T17:35:10.081Z,7.53
2018-08-09T17:37:38.790Z,8.17
2018-08-09T17:40:09.545Z,8.90
2018-08-09T17:42:37.630Z,9.90
2018-08-09T17:45:06.521Z,11.33
2018-08-09T17:47:34.605Z,6.17
2018-08-09T17:50:02.670Z,10.50
2018-08-09T17:52:30.783Z,10.83
2018-08-09T17:54:58.821Z,7.57
2018-08-09T17:57:26.957Z,7.87
2018-08-09T17:59:55.162Z,9.00
2018-08-09T18:02:23.209Z,8.40
2018-08-09T18:04:51.309Z,8.17
2018-08-09T18:07:19.494Z,7.27
2018-08-09T18:09:47.570Z,7.73
2018-08-09T18:12:15.674Z,6.83
2018-08-09T18:14:45.206Z,7.23
2018-08-09T18:17:13.769Z,7.13
2018-08-09T18:19:42.054Z,7.20
2018-08-09T18:22:11.070Z,6.73
2018-08-09T18:24:39.086Z,8.47
2018-08-09T18:27:07.747Z,7.13
2018-08-09T18:29:35.867Z,7.20
2018-08-09T18:32:03.918Z,8.50
2018-08-09T18:34:32.018Z,6.13
2018-08-09T18:37:00.046Z,7.40
2018-08-09T18:39:28.190Z,7.30
2018-08-09T18:41:56.181Z,6.50
2018-08-09T18:44:24.241Z,6.80
2018-08-09T18:46:52.266Z,8.23
2018-08-09T18:49:20.377Z,7.93
2018-08-09T18:51:48.382Z,6.90
2018-08-09T18:54:16.482Z,10.50
2018-08-09T18:56:44.527Z,6.80
2018-08-09T18:59:12.529Z,9.33
2018-08-09T19:01:40.565Z,7.40
2018-08-09T19:04:08.565Z,7.10
2018-08-09T19:06:36.910Z,6.50
2018-08-09T19:09:07.779Z,6.33
2018-08-09T19:11:35.793Z,6.30
2018-08-09T19:14:10.709Z,6.50
2018-08-09T19:16:38.865Z,9.93
2018-08-09T19:19:06.873Z,5.43
2018-08-09T19:21:35.046Z,6.20
2018-08-09T19:24:03.313Z,6.23
2018-08-09T19:26:31.382Z,5.80
2018-08-09T19:28:59.729Z,7.03
2018-08-09T19:31:27.782Z,4.70
2018-08-09T19:33:55.777Z,6.03
2018-08-09T19:36:23.985Z,7.60
2018-08-09T19:38:52.160Z,6.43
2018-08-09T19:41:20.230Z,6.07
2018-08-09T19:43:48.298Z,6.33
2018-08-09T19:46:16.345Z,5.50
2018-08-09T19:48:44.577Z,5.20
2018-08-09T19:51:12.735Z,5.63
2018-08-09T19:53:40.949Z,6.53
2018-08-09T19:56:09.159Z,5.30
2018-08-09T19:58:37.846Z,6.00
2018-08-09T20:01:06.017Z,7.97
2018-08-09T20:03:34.066Z,6.30
2018-08-09T20:06:02.204Z,5.87
2018-08-09T20:08:30.279Z,8.00
2018-08-09T20:10:58.357Z,5.50
2018-08-09T20:13:26.402Z,6.10
2018-08-09T20:15:54.521Z,5.80
2018-08-09T20:18:22.510Z,5.53
2018-08-09T20:20:50.585Z,5.60
2018-08-09T20:23:18.696Z,5.60
2018-08-09T20:25:47.225Z,5.97
2018-08-09T20:28:15.217Z,5.50
2018-08-09T20:30:43.249Z,7.60
2018-08-09T20:33:11.241Z,5.60
2018-08-09T20:35:39.663Z,5.90
2018-08-09T20:38:07.670Z,5.97
2018-08-09T20:40:35.666Z,10.57
2018-08-09T20:43:03.710Z,5.23
2018-08-09T20:45:31.846Z,6.23
2018-08-09T20:47:59.941Z,7.50
2018-08-09T20:50:28.725Z,5.63
2018-08-09T20:52:56.737Z,8.40
2018-08-09T20:55:24.785Z,6.07
2018-08-09T20:57:53.620Z,6.20
2018-08-09T21:00:26.285Z,7.60
2018-08-09T21:02:55.706Z,12.40
2018-08-09T21:05:31.994Z,9.70
2018-08-09T21:08:00.037Z,11.17
2018-08-09T21:10:28.485Z,11.03
2018-08-09T21:12:56.845Z,11.70
2018-08-09T21:15:25.072Z,7.33
2018-08-09T21:17:52.958Z,8.07
2018-08-09T21:20:21.001Z,8.70
2018-08-09T21:22:50.000Z,6.90
2018-08-09T21:25:18.290Z,10.20
2018-08-09T21:27:46.921Z,7.23
2018-08-09T21:30:18.721Z,5.63
2018-08-09T21:32:47.253Z,10.80
2018-08-09T21:35:15.441Z,9.30
2018-08-09T21:37:44.037Z,11.70
2018-08-09T21:40:12.830Z,10.07
2018-08-09T21:42:40.942Z,10.60
2018-08-09T21:45:11.081Z,13.67
2018-08-09T21:47:39.077Z,12.03
2018-08-09T21:50:09.734Z,8.80
2018-08-09T21:52:38.001Z,9.40
2018-08-09T21:55:06.889Z,8.73
2018-08-09T21:57:35.094Z,8.47
2018-08-09T22:00:03.150Z,9.47
2018-08-09T22:02:31.197Z,14.37
2018-08-09T22:05:04.685Z,6.57
2018-08-09T22:07:38.661Z,5.83
2018-08-09T22:10:12.213Z,15.93
2018-08-09T22:12:45.717Z,15.93
2018-08-09T22:15:20.261Z,6.40
2018-08-09T22:17:54.205Z,15.13
2018-08-09T22:20:27.675Z,8.67
2018-08-09T22:22:55.668Z,8.73
2018-08-09T22:25:23.665Z,11.70
2018-08-09T22:27:51.701Z,7.20
2018-08-09T22:30:19.887Z,12.93
2018-08-09T22:32:47.922Z,10.63
2018-08-09T22:35:15.953Z,6.83
2018-08-09T22:37:44.345Z,7.80
2018-08-09T22:40:12.341Z,7.27
2018-08-09T22:42:40.419Z,6.13
2018-08-09T22:45:08.458Z,9.93
2018-08-09T22:47:36.514Z,6.83
2018-08-09T22:50:04.721Z,5.93
2018-08-09T22:52:32.850Z,8.00
2018-08-09T22:55:00.935Z,8.17
2018-08-09T22:57:28.925Z,7.53
2018-08-09T22:59:56.954Z,4.90
2018-08-09T23:02:24.962Z,11.53
2018-08-09T23:04:53.073Z,8.00
2018-08-09T23:07:21.175Z,6.37
2018-08-09T23:09:49.149Z,9.50
2018-08-09T23:12:17.421Z,6.93
2018-08-09T23:14:45.429Z,10.83
2018-08-09T23:17:13.417Z,7.83
2018-08-09T23:19:41.678Z,6.20
2018-08-09T23:22:09.766Z,8.13
2018-08-09T23:24:37.850Z,8.47
2018-08-09T23:27:05.886Z,5.43
2018-08-09T23:29:34.109Z,7.10
2018-08-09T23:32:02.205Z,6.50
2018-08-09T23:34:30.277Z,8.20
2018-08-09T23:36:58.305Z,9.63
2018-08-09T23:39:26.353Z,6.63
2018-08-09T23:41:54.425Z,7.30
2018-08-09T23:44:22.518Z,5.97
2018-08-09T23:46:50.601Z,6.40
2018-08-09T23:49:18.681Z,9.20
2018-08-09T23:51:46.674Z,6.47
2018-08-09T23:54:14.697Z,7.90
2018-08-09T23:56:42.805Z,6.80
2018-08-09T23:59:10.790Z,6.50
